sensor_id;sensor_type;location;lat;lon;timestamp;pressure;altitude;pressure_sealevel;temperature;humidity
19759;BME280;10038;42.662;23.278;2023-04-26T00:01:55;161111.66;;;9.20;100.00
19759;BME280;10038;42.662;23.278;2023-04-26T00:04:23;161117.03;;;9.22;100.00
19759;BME280;10038;42.662;23.278;2023-04-26T00:06:50;161091.72;;;9.13;100.00
19759;BME280;10038;42.662;23.278;2023-04-26T00:09:17;161045.13;;;8.95;100.00
19759;BME280;10038;42.662;23.278;2023-04-26T00:11:45;161058.44;;;9.00;100.00
19759;BME280;10038;42.662;23.278;2023-04-26T00:14:12;161027.81;;;8.88;100.00
19759;BME280;10038;42.662;23.278;2023-04-26T00:16:39;160995.84;;;8.76;100.00
19759;BME280;10038;42.662;23.278;2023-04-26T00:19:06;161018.47;;;8.85;100.00
19759;BME280;10038;42.662;23.278;2023-04-26T00:21:34;161010.47;;;8.82;100.00
19759;BME280;10038;42.662;23.278;2023-04-26T00:24:02;160967.88;;;8.66;100.00
19759;BME280;10038;42.662;23.278;2023-04-26T00:26:30;160978.56;;;8.70;100.00
19759;BME280;10038;42.662;23.278;2023-04-26T00:29:00;160997.19;;;8.77;100.00
19759;BME280;10038;42.662;23.278;2023-04-26T00:31:27;160949.28;;;8.59;100.00
19759;BME280;10038;42.662;23.278;2023-04-26T00:33:54;160902.66;;;8.41;100.00
19759;BME280;10038;42.662;23.278;2023-04-26T00:36:21;160884.06;;;8.34;100.00
19759;BME280;10038;42.662;23.278;2023-04-26T00:38:47;160933.28;;;8.53;100.00
19759;BME280;10038;42.662;23.278;2023-04-26T00:41:14;160957.25;;;8.62;100.00
19759;BME280;10038;42.662;23.278;2023-04-26T00:43:41;160930.59;;;8.52;100.00
19759;BME280;10038;42.662;23.278;2023-04-26T00:46:09;160943.97;;;8.57;100.00
19759;BME280;10038;42.662;23.278;2023-04-26T00:48:37;160882.72;;;8.34;100.00
19759;BME280;10038;42.662;23.278;2023-04-26T00:51:04;160805.50;;;8.04;100.00
19759;BME280;10038;42.662;23.278;2023-04-26T00:53:32;160761.59;;;7.88;100.00
19759;BME280;10038;42.662;23.278;2023-04-26T00:56:00;160750.94;;;7.84;100.00
19759;BME280;10038;42.662;23.278;2023-04-26T00:58:27;160762.94;;;7.88;100.00
19759;BME280;10038;42.662;23.278;2023-04-26T01:00:55;160776.25;;;7.93;100.00
19759;BME280;10038;42.662;23.278;2023-04-26T01:03:24;160837.41;;;8.16;100.00
19759;BME280;10038;42.662;23.278;2023-04-26T01:05:51;160856.06;;;8.23;100.00
19759;BME280;10038;42.662;23.278;2023-04-26T01:08:19;160854.72;;;8.23;100.00
19759;BME280;10038;42.662;23.278;2023-04-26T01:10:46;160858.69;;;8.24;100.00
19759;BME280;10038;42.662;23.278;2023-04-26T01:13:14;160880.03;;;8.32;100.00
19759;BME280;10038;42.662;23.278;2023-04-26T01:15:43;160904.00;;;8.42;100.00
19759;BME280;10038;42.662;23.278;2023-04-26T01:18:10;160882.72;;;8.34;100.00
19759;BME280;10038;42.662;23.278;2023-04-26T01:20:39;160913.34;;;8.45;100.00
19759;BME280;10038;42.662;23.278;2023-04-26T01:23:08;160906.69;;;8.43;100.00
19759;BME280;10038;42.662;23.278;2023-04-26T01:25:36;160890.72;;;8.37;100.00
19759;BME280;10038;42.662;23.278;2023-04-26T01:28:02;160813.50;;;8.07;100.00
19759;BME280;10038;42.662;23.278;2023-04-26T01:30:29;160786.84;;;7.97;100.00
19759;BME280;10038;42.662;23.278;2023-04-26T01:32:56;160784.22;;;7.96;100.00
19759;BME280;10038;42.662;23.278;2023-04-26T01:35:23;160736.31;;;7.78;100.00
19759;BME280;10038;42.662;23.278;2023-04-26T01:37:50;160736.31;;;7.78;100.00
19759;BME280;10038;42.662;23.278;2023-04-26T01:40:19;160769.59;;;7.91;100.00
19759;BME280;10038;42.662;23.278;2023-04-26T01:42:46;160746.97;;;7.82;100.00
19759;BME280;10038;42.662;23.278;2023-04-26T01:45:13;160738.97;;;7.79;100.00
19759;BME280;10038;42.662;23.278;2023-04-26T01:47:40;160809.47;;;8.06;100.00
19759;BME280;10038;42.662;23.278;2023-04-26T01:50:08;160800.16;;;8.02;100.00
19759;BME280;10038;42.662;23.278;2023-04-26T01:52:35;160800.16;;;8.02;100.00
19759;BME280;10038;42.662;23.278;2023-04-26T01:55:02;160809.47;;;8.06;100.00
19759;BME280;10038;42.662;23.278;2023-04-26T01:57:30;160800.16;;;8.02;100.00
19759;BME280;10038;42.662;23.278;2023-04-26T01:59:57;160765.56;;;7.89;100.00
19759;BME280;10038;42.662;23.278;2023-04-26T02:02:24;160738.97;;;7.79;100.00
19759;BME280;10038;42.662;23.278;2023-04-26T02:04:51;160732.34;;;7.77;100.00
19759;BME280;10038;42.662;23.278;2023-04-26T02:07:17;160716.34;;;7.70;100.00
19759;BME280;10038;42.662;23.278;2023-04-26T02:09:45;160725.69;;;7.74;100.00
19759;BME280;10038;42.662;23.278;2023-04-26T02:12:12;160761.59;;;7.88;100.00
19759;BME280;10038;42.662;23.278;2023-04-26T02:14:40;160762.94;;;7.88;100.00
19759;BME280;10038;42.662;23.278;2023-04-26T02:17:07;160777.56;;;7.94;100.00
19759;BME280;10038;42.662;23.278;2023-04-26T02:19:35;160757.59;;;7.86;100.00
19759;BME280;10038;42.662;23.278;2023-04-26T02:22:04;160778.88;;;7.94;100.00
19759;BME280;10038;42.662;23.278;2023-04-26T02:24:31;160820.16;;;8.10;100.00
19759;BME280;10038;42.662;23.278;2023-04-26T02:26:58;160805.50;;;8.04;100.00
19759;BME280;10038;42.662;23.278;2023-04-26T02:29:28;160812.16;;;8.07;100.00
19759;BME280;10038;42.662;23.278;2023-04-26T02:31:56;160829.41;;;8.13;100.00
19759;BME280;10038;42.662;23.278;2023-04-26T02:34:23;160840.09;;;8.17;100.00
19759;BME280;10038;42.662;23.278;2023-04-26T02:36:50;160858.69;;;8.24;100.00
19759;BME280;10038;42.662;23.278;2023-04-26T02:39:17;160901.31;;;8.41;100.00
19759;BME280;10038;42.662;23.278;2023-04-26T02:41:44;160941.28;;;8.56;100.00
19759;BME280;10038;42.662;23.278;2023-04-26T02:44:10;160962.56;;;8.64;100.00
19759;BME280;10038;42.662;23.278;2023-04-26T02:46:37;160957.25;;;8.62;100.00
19759;BME280;10038;42.662;23.278;2023-04-26T02:49:05;160939.94;;;8.55;100.00
19759;BME280;10038;42.662;23.278;2023-04-26T02:51:32;160959.88;;;8.63;100.00
19759;BME280;10038;42.662;23.278;2023-04-26T02:53:59;160945.25;;;8.57;100.00
19759;BME280;10038;42.662;23.278;2023-04-26T02:56:27;160961.22;;;8.63;100.00
19759;BME280;10038;42.662;23.278;2023-04-26T02:58:54;160967.88;;;8.66;100.00
19759;BME280;10038;42.662;23.278;2023-04-26T03:01:21;161023.84;;;8.87;100.00
19759;BME280;10038;42.662;23.278;2023-04-26T03:03:48;161015.84;;;8.84;100.00
19759;BME280;10038;42.662;23.278;2023-04-26T03:06:16;161023.84;;;8.87;100.00
19759;BME280;10038;42.662;23.278;2023-04-26T03:08:43;160989.19;;;8.74;100.00
19759;BME280;10038;42.662;23.278;2023-04-26T03:11:10;160983.88;;;8.72;100.00
19759;BME280;10038;42.662;23.278;2023-04-26T03:13:37;160994.53;;;8.76;100.00
19759;BME280;10038;42.662;23.278;2023-04-26T03:16:04;160975.88;;;8.69;100.00
19759;BME280;10038;42.662;23.278;2023-04-26T03:18:31;161009.19;;;8.81;100.00
19759;BME280;10038;42.662;23.278;2023-04-26T03:20:58;161023.84;;;8.87;100.00
19759;BME280;10038;42.662;23.278;2023-04-26T03:23:26;161011.81;;;8.82;100.00
19759;BME280;10038;42.662;23.278;2023-04-26T03:25:53;161039.78;;;8.93;100.00
19759;BME280;10038;42.662;23.278;2023-04-26T03:28:20;161026.47;;;8.88;100.00
19759;BME280;10038;42.662;23.278;2023-04-26T03:30:47;161055.75;;;8.99;100.00
19759;BME280;10038;42.662;23.278;2023-04-26T03:33:14;161074.44;;;9.06;100.00
19759;BME280;10038;42.662;23.278;2023-04-26T03:35:42;161069.06;;;9.04;100.00
19759;BME280;10038;42.662;23.278;2023-04-26T03:38:09;161075.72;;;9.07;100.00
19759;BME280;10038;42.662;23.278;2023-04-26T03:40:37;161067.78;;;9.04;100.00
19759;BME280;10038;42.662;23.278;2023-04-26T03:43:04;161075.72;;;9.07;100.00
19759;BME280;10038;42.662;23.278;2023-04-26T03:45:31;161081.06;;;9.09;100.00
19759;BME280;10038;42.662;23.278;2023-04-26T03:47:57;161075.72;;;9.07;100.00
19759;BME280;10038;42.662;23.278;2023-04-26T03:50:24;161079.75;;;9.08;100.00
19759;BME280;10038;42.662;23.278;2023-04-26T03:52:51;161050.44;;;8.97;100.00
19759;BME280;10038;42.662;23.278;2023-04-26T03:55:18;161109.03;;;9.19;100.00
19759;BME280;10038;42.662;23.278;2023-04-26T03:57:46;161127.66;;;9.26;100.00
19759;BME280;10038;42.662;23.278;2023-04-26T04:00:14;161152.97;;;9.36;100.00
19759;BME280;10038;42.662;23.278;2023-04-26T04:02:41;161170.28;;;9.42;100.00
19759;BME280;10038;42.662;23.278;2023-04-26T04:05:08;161228.88;;;9.65;100.00
19759;BME280;10038;42.662;23.278;2023-04-26T04:07:35;161258.19;;;9.76;100.00
19759;BME280;10038;42.662;23.278;2023-04-26T04:10:02;161231.56;;;9.66;100.00
19759;BME280;10038;42.662;23.278;2023-04-26T04:12:29;161202.25;;;9.55;100.00
19759;BME280;10038;42.662;23.278;2023-04-26T04:14:58;161218.25;;;9.61;100.00
19759;BME280;10038;42.662;23.278;2023-04-26T04:17:25;161283.53;;;9.85;100.00
19759;BME280;10038;42.662;23.278;2023-04-26T04:19:52;161335.50;;;10.05;100.00
19759;BME280;10038;42.662;23.278;2023-04-26T04:22:19;161346.13;;;10.09;100.00
19759;BME280;10038;42.662;23.278;2023-04-26T04:24:46;161332.81;;;10.04;100.00
19759;BME280;10038;42.662;23.278;2023-04-26T04:27:12;161207.56;;;9.57;100.00
19759;BME280;10038;42.662;23.278;2023-04-26T04:29:40;161378.19;;;10.21;100.00
19759;BME280;10038;42.662;23.278;2023-04-26T04:32:08;161380.81;;;10.22;100.00
19759;BME280;10038;42.662;23.278;2023-04-26T04:34:37;161363.53;;;10.16;100.00
19759;BME280;10038;42.662;23.278;2023-04-26T04:37:04;161407.50;;;10.32;100.00
19759;BME280;10038;42.662;23.278;2023-04-26T04:39:31;161458.16;;;10.51;100.00
19759;BME280;10038;42.662;23.278;2023-04-26T04:41:58;161316.81;;;9.98;100.00
19759;BME280;10038;42.662;23.278;2023-04-26T04:44:25;161483.47;;;10.61;100.00
19759;BME280;10038;42.662;23.278;2023-04-26T04:46:52;161491.47;;;10.64;100.00
19759;BME280;10038;42.662;23.278;2023-04-26T04:49:20;161394.19;;;10.27;100.00
19759;BME280;10038;42.662;23.278;2023-04-26T04:51:49;161450.16;;;10.48;100.00
19759;BME280;10038;42.662;23.278;2023-04-26T04:54:17;161420.84;;;10.37;100.00
19759;BME280;10038;42.662;23.278;2023-04-26T04:56:44;161455.47;;;10.50;100.00
19759;BME280;10038;42.662;23.278;2023-04-26T04:59:10;161447.47;;;10.47;100.00
19759;BME280;10038;42.662;23.278;2023-04-26T05:01:37;161564.81;;;10.92;99.89
19759;BME280;10038;42.662;23.278;2023-04-26T05:04:04;161556.81;;;10.89;98.90
19759;BME280;10038;42.662;23.278;2023-04-26T05:06:33;161587.47;;;11.00;98.36
19759;BME280;10038;42.662;23.278;2023-04-26T05:09:00;161658.16;;;11.27;97.03
19759;BME280;10038;42.662;23.278;2023-04-26T05:11:29;161732.88;;;11.55;95.36
19759;BME280;10038;42.662;23.278;2023-04-26T05:13:56;161652.81;;;11.25;95.23
19759;BME280;10038;42.662;23.278;2023-04-26T05:16:23;161711.53;;;11.47;94.99
19759;BME280;10038;42.662;23.278;2023-04-26T05:18:50;161687.50;;;11.38;94.38
19759;BME280;10038;42.662;23.278;2023-04-26T05:21:20;161779.59;;;11.73;93.20
19759;BME280;10038;42.662;23.278;2023-04-26T05:23:49;161829.00;;;11.92;92.26
19759;BME280;10038;42.662;23.278;2023-04-26T05:26:16;161927.72;;;12.29;91.05
19759;BME280;10038;42.662;23.278;2023-04-26T05:28:43;161991.78;;;12.53;89.09
19759;BME280;10038;42.662;23.278;2023-04-26T05:31:10;161998.47;;;12.56;88.51
19759;BME280;10038;42.662;23.278;2023-04-26T05:33:37;162169.47;;;13.20;87.43
19759;BME280;10038;42.662;23.278;2023-04-26T05:36:05;162250.97;;;13.51;85.15
19759;BME280;10038;42.662;23.278;2023-04-26T05:38:33;162357.84;;;13.91;82.36
19759;BME280;10038;42.662;23.278;2023-04-26T05:41:02;162387.25;;;14.02;82.96
19759;BME280;10038;42.662;23.278;2023-04-26T05:43:29;162404.63;;;14.09;83.47
19759;BME280;10038;42.662;23.278;2023-04-26T05:45:56;162421.97;;;14.15;82.29
19759;BME280;10038;42.662;23.278;2023-04-26T05:48:23;162436.69;;;14.21;80.36
19759;BME280;10038;42.662;23.278;2023-04-26T05:50:51;162438.03;;;14.22;80.30
19759;BME280;10038;42.662;23.278;2023-04-26T05:53:18;162528.97;;;14.56;79.10
19759;BME280;10038;42.662;23.278;2023-04-26T05:55:45;162341.78;;;13.85;78.36
19759;BME280;10038;42.662;23.278;2023-04-26T06:00:44;162416.66;;;14.13;80.03
19759;BME280;10038;42.662;23.278;2023-04-26T06:03:14;162176.16;;;13.23;77.03
19759;BME280;10038;42.662;23.278;2023-04-26T06:05:41;162198.84;;;13.31;77.31
19759;BME280;10038;42.662;23.278;2023-04-26T06:08:08;162323.09;;;13.78;74.54
19759;BME280;10038;42.662;23.278;2023-04-26T06:10:35;162664.06;;;15.07;72.20
19759;BME280;10038;42.662;23.278;2023-04-26T06:13:02;162494.22;;;14.43;72.24
19759;BME280;10038;42.662;23.278;2023-04-26T06:15:32;162702.84;;;15.21;71.87
19759;BME280;10038;42.662;23.278;2023-04-26T06:20:38;162575.78;;;14.73;73.63
19759;BME280;10038;42.662;23.278;2023-04-26T06:23:14;162542.38;;;14.61;74.47
19759;BME280;10038;42.662;23.278;2023-04-26T06:25:41;162285.69;;;13.64;75.86
19759;BME280;10038;42.662;23.278;2023-04-26T06:28:10;162280.34;;;13.62;75.23
19759;BME280;10038;42.662;23.278;2023-04-26T06:30:37;162210.84;;;13.36;76.63
19759;BME280;10038;42.662;23.278;2023-04-26T06:33:05;162124.00;;;13.03;77.34
19759;BME280;10038;42.662;23.278;2023-04-26T06:35:42;162197.50;;;13.31;77.84
19759;BME280;10038;42.662;23.278;2023-04-26T06:38:16;162124.00;;;13.03;77.82
19759;BME280;10038;42.662;23.278;2023-04-26T06:40:45;162202.84;;;13.33;77.60
19759;BME280;10038;42.662;23.278;2023-04-26T06:43:12;162245.59;;;13.49;77.64
19759;BME280;10038;42.662;23.278;2023-04-26T06:48:06;162257.63;;;13.53;76.08
19759;BME280;10038;42.662;23.278;2023-04-26T06:50:35;162288.38;;;13.65;74.77
19759;BME280;10038;42.662;23.278;2023-04-26T06:53:04;162528.97;;;14.56;70.41
19759;BME280;10038;42.662;23.278;2023-04-26T06:55:31;162749.66;;;15.39;66.86
19759;BME280;10038;42.662;23.278;2023-04-26T06:57:59;162780.47;;;15.51;66.75
19759;BME280;10038;42.662;23.278;2023-04-26T07:00:27;162553.03;;;14.65;68.39
19759;BME280;10038;42.662;23.278;2023-04-26T07:02:54;162753.69;;;15.41;66.64
19759;BME280;10038;42.662;23.278;2023-04-26T07:05:26;163064.25;;;16.58;61.57
19759;BME280;10038;42.662;23.278;2023-04-26T07:07:53;163279.88;;;17.39;59.50
19759;BME280;10038;42.662;23.278;2023-04-26T07:10:26;163170.06;;;16.97;60.02
19759;BME280;10038;42.662;23.278;2023-04-26T07:12:56;162742.97;;;15.36;63.74
19759;BME280;10038;42.662;23.278;2023-04-26T07:15:23;162892.91;;;15.93;63.75
19759;BME280;10038;42.662;23.278;2023-04-26T07:20:19;163077.66;;;16.63;58.03
19759;BME280;10038;42.662;23.278;2023-04-26T07:22:47;163174.06;;;16.99;54.33
19759;BME280;10038;42.662;23.278;2023-04-26T07:25:15;163187.47;;;17.04;55.88
19759;BME280;10038;42.662;23.278;2023-04-26T07:27:51;162777.78;;;15.50;57.37
19759;BME280;10038;42.662;23.278;2023-04-26T07:30:18;162708.19;;;15.23;59.14
19759;BME280;10038;42.662;23.278;2023-04-26T07:32:45;162697.47;;;15.19;60.41
19759;BME280;10038;42.662;23.278;2023-04-26T07:35:15;162678.75;;;15.12;60.94
19759;BME280;10038;42.662;23.278;2023-04-26T07:37:43;162511.63;;;14.49;60.96
19759;BME280;10038;42.662;23.278;2023-04-26T07:40:11;162510.25;;;14.49;62.23
19759;BME280;10038;42.662;23.278;2023-04-26T07:42:38;162472.81;;;14.35;60.44
19759;BME280;10038;42.662;23.278;2023-04-26T07:45:08;162617.22;;;14.89;59.92
19759;BME280;10038;42.662;23.278;2023-04-26T07:47:35;162549.06;;;14.63;60.39
19759;BME280;10038;42.662;23.278;2023-04-26T07:50:02;162660.00;;;15.05;60.64
19759;BME280;10038;42.662;23.278;2023-04-26T07:52:32;162767.06;;;15.46;58.58
19759;BME280;10038;42.662;23.278;2023-04-26T07:55:02;162880.81;;;15.88;56.75
19759;BME280;10038;42.662;23.278;2023-04-26T07:57:29;162978.53;;;16.25;57.06
19759;BME280;10038;42.662;23.278;2023-04-26T07:59:56;163062.91;;;16.57;56.45
19759;BME280;10038;42.662;23.278;2023-04-26T08:02:25;163024.06;;;16.42;56.77
19759;BME280;10038;42.662;23.278;2023-04-26T08:04:52;163072.31;;;16.61;54.68
19759;BME280;10038;42.662;23.278;2023-04-26T08:07:20;162763.00;;;15.44;59.04
19759;BME280;10038;42.662;23.278;2023-04-26T08:09:47;162934.38;;;16.09;57.43
19759;BME280;10038;42.662;23.278;2023-04-26T08:12:14;162817.94;;;15.65;57.35
19759;BME280;10038;42.662;23.278;2023-04-26T08:14:41;162681.47;;;15.13;58.02
19759;BME280;10038;42.662;23.278;2023-04-26T08:17:10;163041.44;;;16.49;56.10
19759;BME280;10038;42.662;23.278;2023-04-26T08:19:38;163170.06;;;16.97;54.29
19759;BME280;10038;42.662;23.278;2023-04-26T08:22:05;163203.53;;;17.10;54.49
19759;BME280;10038;42.662;23.278;2023-04-26T08:24:33;162965.16;;;16.20;55.97
19759;BME280;10038;42.662;23.278;2023-04-26T08:27:04;162860.75;;;15.81;57.08
19759;BME280;10038;42.662;23.278;2023-04-26T08:29:31;162886.16;;;15.90;56.70
19759;BME280;10038;42.662;23.278;2023-04-26T08:31:58;163044.13;;;16.50;55.60
19759;BME280;10038;42.662;23.278;2023-04-26T08:34:25;163183.47;;;17.02;54.33
19759;BME280;10038;42.662;23.278;2023-04-26T08:36:55;163070.94;;;16.60;54.73
19759;BME280;10038;42.662;23.278;2023-04-26T08:39:22;163030.75;;;16.45;54.79
19759;BME280;10038;42.662;23.278;2023-04-26T08:41:51;162847.38;;;15.76;55.40
19759;BME280;10038;42.662;23.278;2023-04-26T08:44:21;162779.13;;;15.50;56.69
19759;BME280;10038;42.662;23.278;2023-04-26T08:46:54;162702.84;;;15.21;57.49
19759;BME280;10038;42.662;23.278;2023-04-26T08:49:29;162726.91;;;15.30;57.74
19759;BME280;10038;42.662;23.278;2023-04-26T08:51:59;162609.19;;;14.86;57.92
19759;BME280;10038;42.662;23.278;2023-04-26T08:54:27;162717.56;;;15.27;59.06
19759;BME280;10038;42.662;23.278;2023-04-26T08:56:59;162589.16;;;14.78;61.03
19759;BME280;10038;42.662;23.278;2023-04-26T08:59:30;162456.72;;;14.29;60.99
19759;BME280;10038;42.662;23.278;2023-04-26T09:01:58;162562.41;;;14.68;60.16
19759;BME280;10038;42.662;23.278;2023-04-26T09:09:41;162842.03;;;15.74;56.10
19759;BME280;10038;42.662;23.278;2023-04-26T09:12:17;162821.94;;;15.66;57.10
19759;BME280;10038;42.662;23.278;2023-04-26T09:14:49;162998.59;;;16.33;56.54
19759;BME280;10038;42.662;23.278;2023-04-26T09:17:28;162994.63;;;16.31;56.21
19759;BME280;10038;42.662;23.278;2023-04-26T09:19:56;163018.69;;;16.40;56.17
19759;BME280;10038;42.662;23.278;2023-04-26T09:22:28;162993.28;;;16.31;55.78
19759;BME280;10038;42.662;23.278;2023-04-26T09:24:57;162799.19;;;15.58;56.70
19759;BME280;10038;42.662;23.278;2023-04-26T09:27:32;162971.84;;;16.23;54.46
19759;BME280;10038;42.662;23.278;2023-04-26T09:30:03;162997.25;;;16.32;54.60
19759;BME280;10038;42.662;23.278;2023-04-26T09:32:51;163008.00;;;16.36;54.97
19759;BME280;10038;42.662;23.278;2023-04-26T09:35:27;162959.78;;;16.18;55.04
19759;BME280;10038;42.662;23.278;2023-04-26T09:37:55;163262.47;;;17.32;53.29
19759;BME280;10038;42.662;23.278;2023-04-26T09:40:27;163613.72;;;18.64;50.28
19759;BME280;10038;42.662;23.278;2023-04-26T09:43:02;163420.63;;;17.92;49.93
19759;BME280;10038;42.662;23.278;2023-04-26T09:45:32;163424.66;;;17.93;50.41
19759;BME280;10038;42.662;23.278;2023-04-26T09:48:14;163388.47;;;17.80;49.65
19759;BME280;10038;42.662;23.278;2023-04-26T09:50:41;163602.97;;;18.60;47.24
19759;BME280;10038;42.662;23.278;2023-04-26T09:53:08;163417.97;;;17.91;49.68
19759;BME280;10038;42.662;23.278;2023-04-26T09:55:37;163420.63;;;17.92;48.14
19759;BME280;10038;42.662;23.278;2023-04-26T09:58:07;163958.50;;;19.94;45.64
19759;BME280;10038;42.662;23.278;2023-04-26T10:00:37;163849.78;;;19.53;45.87
19759;BME280;10038;42.662;23.278;2023-04-26T10:03:07;163263.81;;;17.33;48.34
19759;BME280;10038;42.662;23.278;2023-04-26T10:08:06;163814.91;;;19.40;46.09
19759;BME280;10038;42.662;23.278;2023-04-26T10:10:33;163691.47;;;18.94;44.91
19759;BME280;10038;42.662;23.278;2023-04-26T10:13:02;163906.16;;;19.74;44.34
19759;BME280;10038;42.662;23.278;2023-04-26T10:15:31;163664.66;;;18.83;44.18
19759;BME280;10038;42.662;23.278;2023-04-26T10:17:58;163937.03;;;19.86;41.99
19759;BME280;10038;42.662;23.278;2023-04-26T10:20:27;163983.97;;;20.03;41.42
19759;BME280;10038;42.662;23.278;2023-04-26T10:22:56;163978.63;;;20.01;41.86
19759;BME280;10038;42.662;23.278;2023-04-26T10:25:35;163822.97;;;19.43;42.26
19759;BME280;10038;42.662;23.278;2023-04-26T10:28:03;163341.56;;;17.62;45.04
19759;BME280;10038;42.662;23.278;2023-04-26T10:30:31;162997.25;;;16.32;48.35
19759;BME280;10038;42.662;23.278;2023-04-26T10:33:13;163164.69;;;16.95;47.77
19759;BME280;10038;42.662;23.278;2023-04-26T10:36:06;163478.25;;;18.13;45.34
19759;BME280;10038;42.662;23.278;2023-04-26T10:38:35;163621.75;;;18.67;43.94
19759;BME280;10038;42.662;23.278;2023-04-26T10:41:28;163439.41;;;17.99;44.41
19759;BME280;10038;42.662;23.278;2023-04-26T10:44:40;163186.09;;;17.03;46.13
19759;BME280;10038;42.662;23.278;2023-04-26T10:47:21;163123.19;;;16.80;46.77
19759;BME280;10038;42.662;23.278;2023-04-26T10:49:49;163287.91;;;17.42;47.07
19759;BME280;10038;42.662;23.278;2023-04-26T10:52:17;163353.59;;;17.66;45.22
19759;BME280;10038;42.662;23.278;2023-04-26T10:54:54;163399.19;;;17.84;44.28
19759;BME280;10038;42.662;23.278;2023-04-26T10:57:46;163265.13;;;17.33;44.88
19759;BME280;10038;42.662;23.278;2023-04-26T11:00:25;163271.88;;;17.36;44.57
19759;BME280;10038;42.662;23.278;2023-04-26T11:02:57;163314.72;;;17.52;44.11
19759;BME280;10038;42.662;23.278;2023-04-26T11:05:37;163196.84;;;17.07;44.78
19759;BME280;10038;42.662;23.278;2023-04-26T11:08:07;163144.59;;;16.88;45.12
19759;BME280;10038;42.662;23.278;2023-04-26T11:10:36;163145.97;;;16.88;45.36
19759;BME280;10038;42.662;23.278;2023-04-26T11:13:04;163087.03;;;16.66;45.32
19759;BME280;10038;42.662;23.278;2023-04-26T11:15:35;163030.75;;;16.45;45.75
19759;BME280;10038;42.662;23.278;2023-04-26T11:18:05;163029.41;;;16.44;44.48
19759;BME280;10038;42.662;23.278;2023-04-26T11:20:32;163082.97;;;16.65;45.47
19759;BME280;10038;42.662;23.278;2023-04-26T11:22:59;163116.50;;;16.77;45.75
19759;BME280;10038;42.662;23.278;2023-04-26T11:25:29;163172.72;;;16.98;44.93
19759;BME280;10038;42.662;23.278;2023-04-26T11:27:58;163269.16;;;17.35;44.32
19759;BME280;10038;42.662;23.278;2023-04-26T11:30:27;163270.53;;;17.35;43.71
19759;BME280;10038;42.662;23.278;2023-04-26T11:32:57;162890.19;;;15.92;44.90
19759;BME280;10038;42.662;23.278;2023-04-26T11:35:25;162962.47;;;16.19;46.50
19759;BME280;10038;42.662;23.278;2023-04-26T11:37:52;162866.09;;;15.83;46.72
19759;BME280;10038;42.662;23.278;2023-04-26T11:40:19;162768.47;;;15.46;47.19
19759;BME280;10038;42.662;23.278;2023-04-26T11:42:46;162799.19;;;15.58;48.31
19759;BME280;10038;42.662;23.278;2023-04-26T11:45:15;162867.44;;;15.83;47.44
19759;BME280;10038;42.662;23.278;2023-04-26T11:47:43;163308.03;;;17.49;44.82
19759;BME280;10038;42.662;23.278;2023-04-26T11:50:12;163096.41;;;16.70;44.95
19759;BME280;10038;42.662;23.278;2023-04-26T11:52:40;163243.69;;;17.25;44.33
19759;BME280;10038;42.662;23.278;2023-04-26T11:55:08;163580.16;;;18.52;41.74
19759;BME280;10038;42.662;23.278;2023-04-26T11:57:36;163543.91;;;18.38;40.98
19759;BME280;10038;42.662;23.278;2023-04-26T12:00:10;163396.47;;;17.83;42.27
19759;BME280;10038;42.662;23.278;2023-04-26T12:02:42;163365.69;;;17.71;42.44
19759;BME280;10038;42.662;23.278;2023-04-26T12:05:20;163198.19;;;17.08;43.92
19759;BME280;10038;42.662;23.278;2023-04-26T12:07:51;163124.53;;;16.80;45.19
19759;BME280;10038;42.662;23.278;2023-04-26T12:10:22;163093.72;;;16.69;44.75
19759;BME280;10038;42.662;23.278;2023-04-26T12:12:50;163151.31;;;16.90;46.20
19759;BME280;10038;42.662;23.278;2023-04-26T12:15:17;163064.25;;;16.58;46.50
19759;BME280;10038;42.662;23.278;2023-04-26T12:17:54;162923.63;;;16.05;45.99
19759;BME280;10038;42.662;23.278;2023-04-26T12:20:30;162708.19;;;15.23;45.60
19759;BME280;10038;42.662;23.278;2023-04-26T12:23:06;163026.72;;;16.43;44.91
19759;BME280;10038;42.662;23.278;2023-04-26T12:25:36;163144.59;;;16.88;44.41
19759;BME280;10038;42.662;23.278;2023-04-26T12:28:08;163295.94;;;17.45;42.32
19759;BME280;10038;42.662;23.278;2023-04-26T12:30:37;163393.84;;;17.82;41.20
19759;BME280;10038;42.662;23.278;2023-04-26T12:33:05;163259.78;;;17.31;42.64
19759;BME280;10038;42.662;23.278;2023-04-26T12:35:34;163151.31;;;16.90;44.28
19759;BME280;10038;42.662;23.278;2023-04-26T12:38:02;163056.22;;;16.55;45.75
19759;BME280;10038;42.662;23.278;2023-04-26T12:40:29;162998.59;;;16.33;45.50
19759;BME280;10038;42.662;23.278;2023-04-26T12:42:57;162991.94;;;16.30;46.61
19759;BME280;10038;42.662;23.278;2023-04-26T12:45:24;162834.03;;;15.71;47.02
19759;BME280;10038;42.662;23.278;2023-04-26T12:47:56;163033.41;;;16.46;47.12
19759;BME280;10038;42.662;23.278;2023-04-26T12:50:23;163128.53;;;16.82;45.85
19759;BME280;10038;42.662;23.278;2023-04-26T12:52:52;163361.66;;;17.69;45.25
19759;BME280;10038;42.662;23.278;2023-04-26T12:55:19;163279.88;;;17.39;44.38
19759;BME280;10038;42.662;23.278;2023-04-26T12:57:47;163305.34;;;17.48;44.09
19759;BME280;10038;42.662;23.278;2023-04-26T13:00:15;163302.66;;;17.47;43.96
19759;BME280;10038;42.662;23.278;2023-04-26T13:02:43;163211.56;;;17.13;45.52
19759;BME280;10038;42.662;23.278;2023-04-26T13:05:11;162919.66;;;16.03;46.89
19759;BME280;10038;42.662;23.278;2023-04-26T13:07:41;162843.34;;;15.74;48.17